TAM8147 LPPT-SBGR
Flight info
| Callsign | TAM8147 |
|---|---|
| Flight time | N/A |
| Altitude | 33000 |
| Route | BEVOP DCT BAROK/M83F340 UN873 SAMAR N873 IPERA UN873 FEMUR/M82F360 NTL DCT OPTUR DCT ASGIK UZ21 VUNOX |
| Aircraft | B77W/H-SDE1E2E3FGHIJ2J3J4J5M1RWXY/LB1D1 |
Departure
| Time | 2026-05-08 05:36 |
|---|---|
| Airport | Lisbon Humberto Delgado Airport (LPPT) |
Arrival
| Time | N/A |
|---|---|
| Airport | São Paulo/Guarulhos–Governor André Franco Montoro International Airport (SBGR) |
| Time | Latitude | Longitude | Altitude | Speed | Heading |
|---|---|---|---|---|---|
| 2026-05-08 05:25 | 38.77674 | -9.13220 | 342 ft | 0 kts | 121° |
| 2026-05-08 05:26 | 38.77683 | -9.13241 | 356 ft | 3 kts | 120° |
| 2026-05-08 05:26 | 38.77693 | -9.13262 | 353 ft | 3 kts | 120° |
| 2026-05-08 05:26 | 38.77702 | -9.13283 | 353 ft | 3 kts | 120° |
| 2026-05-08 05:27 | 38.77709 | -9.13306 | 354 ft | 3 kts | 83° |
| 2026-05-08 05:27 | 38.77702 | -9.13326 | 354 ft | 1 kts | 28° |
| 2026-05-08 05:27 | 38.77701 | -9.13326 | 354 ft | 0 kts | 28° |
| 2026-05-08 05:30 | 38.77704 | -9.13324 | 354 ft | 2 kts | 28° |
| 2026-05-08 05:30 | 38.77725 | -9.13329 | 354 ft | 6 kts | 341° |
| 2026-05-08 05:31 | 38.77767 | -9.13346 | 353 ft | 6 kts | 345° |
| 2026-05-08 05:31 | 38.77811 | -9.13360 | 358 ft | 8 kts | 346° |
| 2026-05-08 05:31 | 38.77892 | -9.13382 | 360 ft | 15 kts | 348° |
| 2026-05-08 05:31 | 38.78015 | -9.13415 | 366 ft | 20 kts | 348° |
| 2026-05-08 05:32 | 38.78164 | -9.13454 | 370 ft | 22 kts | 348° |
| 2026-05-08 05:32 | 38.78316 | -9.13494 | 374 ft | 22 kts | 348° |
| 2026-05-08 05:32 | 38.78467 | -9.13536 | 374 ft | 22 kts | 347° |
| 2026-05-08 05:32 | 38.78575 | -9.13565 | 379 ft | 12 kts | 349° |
| 2026-05-08 05:33 | 38.78660 | -9.13556 | 378 ft | 13 kts | 17° |
| 2026-05-08 05:33 | 38.78756 | -9.13508 | 369 ft | 17 kts | 22° |
| 2026-05-08 05:33 | 38.78876 | -9.13443 | 363 ft | 21 kts | 23° |
| 2026-05-08 05:33 | 38.79018 | -9.13367 | 360 ft | 23 kts | 22° |
| 2026-05-08 05:34 | 38.79161 | -9.13291 | 359 ft | 23 kts | 22° |
| 2026-05-08 05:34 | 38.79307 | -9.13213 | 360 ft | 23 kts | 22° |
| 2026-05-08 05:34 | 38.79452 | -9.13135 | 367 ft | 23 kts | 22° |
| 2026-05-08 05:34 | 38.79598 | -9.13057 | 368 ft | 23 kts | 22° |
| 2026-05-08 05:35 | 38.79729 | -9.12986 | 371 ft | 14 kts | 23° |
| 2026-05-08 05:35 | 38.79772 | -9.12913 | 365 ft | 12 kts | 102° |
| 2026-05-08 05:35 | 38.79737 | -9.12798 | 363 ft | 15 kts | 120° |
| 2026-05-08 05:35 | 38.79588 | -9.12813 | 362 ft | 48 kts | 202° |
| 2026-05-08 05:36 | 38.79063 | -9.13096 | 367 ft | 114 kts | 202° |
| 2026-05-08 05:36 | 38.78155 | -9.13581 | 375 ft | 167 kts | 203° |
| 2026-05-08 05:36 | 38.76964 | -9.14209 | 486 ft | 194 kts | 202° |
| 2026-05-08 05:36 | 38.75711 | -9.14819 | 1061 ft | 193 kts | 201° |
| 2026-05-08 05:37 | 38.74478 | -9.15491 | 1692 ft | 192 kts | 203° |
| 2026-05-08 05:37 | 38.73243 | -9.16192 | 2109 ft | 201 kts | 203° |
| 2026-05-08 05:37 | 38.71899 | -9.16939 | 2291 ft | 221 kts | 202° |
| 2026-05-08 05:37 | 38.70408 | -9.17747 | 2502 ft | 241 kts | 202° |
| 2026-05-08 05:38 | 38.68836 | -9.18585 | 3069 ft | 248 kts | 202° |
| 2026-05-08 05:38 | 38.67227 | -9.19434 | 3686 ft | 252 kts | 202° |
| 2026-05-08 05:38 | 38.65604 | -9.20286 | 4424 ft | 252 kts | 202° |
| 2026-05-08 05:38 | 38.63976 | -9.21133 | 5133 ft | 253 kts | 201° |
| 2026-05-08 05:39 | 38.62289 | -9.21810 | 5794 ft | 255 kts | 195° |
| 2026-05-08 05:39 | 38.60562 | -9.22391 | 6458 ft | 258 kts | 195° |
| 2026-05-08 05:39 | 38.58820 | -9.22981 | 7065 ft | 260 kts | 196° |
| 2026-05-08 05:39 | 38.57062 | -9.23585 | 7645 ft | 263 kts | 196° |
| 2026-05-08 05:40 | 38.55269 | -9.24143 | 8235 ft | 267 kts | 192° |
| 2026-05-08 05:40 | 38.53415 | -9.24489 | 8830 ft | 271 kts | 189° |
| 2026-05-08 05:40 | 38.51563 | -9.24775 | 9411 ft | 274 kts | 189° |
| 2026-05-08 05:40 | 38.49653 | -9.25070 | 9947 ft | 278 kts | 190° |
| 2026-05-08 05:41 | 38.47705 | -9.25380 | 10325 ft | 287 kts | 190° |
| 2026-05-08 05:41 | 38.45719 | -9.25704 | 10910 ft | 289 kts | 191° |
| 2026-05-08 05:41 | 38.43712 | -9.26037 | 11509 ft | 292 kts | 191° |
| 2026-05-08 05:41 | 38.41685 | -9.26377 | 12166 ft | 295 kts | 191° |
| 2026-05-08 05:42 | 38.39642 | -9.26723 | 12848 ft | 298 kts | 191° |
| 2026-05-08 05:42 | 38.37573 | -9.27074 | 13534 ft | 302 kts | 191° |
| 2026-05-08 05:42 | 38.35490 | -9.27428 | 14286 ft | 299 kts | 191° |
| 2026-05-08 05:42 | 38.33448 | -9.27774 | 15102 ft | 295 kts | 192° |
| 2026-05-08 05:43 | 38.31407 | -9.28122 | 15716 ft | 299 kts | 192° |
| 2026-05-08 05:43 | 38.29288 | -9.28488 | 15942 ft | 318 kts | 192° |
| 2026-05-08 05:43 | 38.27031 | -9.28879 | 16095 ft | 337 kts | 192° |
| 2026-05-08 05:43 | 38.24638 | -9.29291 | 16255 ft | 357 kts | 192° |
| 2026-05-08 05:44 | 38.22103 | -9.29726 | 16410 ft | 377 kts | 192° |
| 2026-05-08 05:44 | 38.19447 | -9.30176 | 16753 ft | 391 kts | 192° |
| 2026-05-08 05:44 | 38.16718 | -9.30635 | 17274 ft | 400 kts | 192° |
| 2026-05-08 05:44 | 38.14882 | -9.30943 | 17700 ft | 403 kts | 192° |
| 2026-05-08 05:45 | 38.11142 | -9.31570 | 18595 ft | 407 kts | 192° |
| 2026-05-08 05:45 | 38.09275 | -9.31884 | 19031 ft | 409 kts | 192° |
| 2026-05-08 05:45 | 38.06453 | -9.32360 | 19668 ft | 411 kts | 193° |
| 2026-05-08 05:45 | 38.03603 | -9.32841 | 20283 ft | 414 kts | 193° |
| 2026-05-08 05:46 | 38.00732 | -9.33327 | 20884 ft | 418 kts | 193° |
| 2026-05-08 05:46 | 37.97831 | -9.33785 | 21461 ft | 422 kts | 192° |
| 2026-05-08 05:46 | 37.94895 | -9.34181 | 22058 ft | 426 kts | 191° |
| 2026-05-08 05:46 | 37.91933 | -9.34555 | 22628 ft | 429 kts | 191° |
| 2026-05-08 05:47 | 37.88948 | -9.34928 | 23197 ft | 433 kts | 191° |
| 2026-05-08 05:47 | 37.85941 | -9.35309 | 23699 ft | 436 kts | 192° |
| 2026-05-08 05:47 | 37.82915 | -9.35698 | 24181 ft | 438 kts | 192° |
| 2026-05-08 05:47 | 37.79882 | -9.36092 | 24661 ft | 440 kts | 192° |
| 2026-05-08 05:48 | 37.76835 | -9.36489 | 25196 ft | 440 kts | 192° |
| 2026-05-08 05:48 | 37.73782 | -9.36889 | 25662 ft | 442 kts | 192° |
| 2026-05-08 05:48 | 37.70710 | -9.37291 | 26093 ft | 445 kts | 192° |
| 2026-05-08 05:48 | 37.67617 | -9.37696 | 26523 ft | 448 kts | 192° |
| 2026-05-08 05:49 | 37.64506 | -9.38102 | 26925 ft | 450 kts | 192° |
| 2026-05-08 05:49 | 37.61381 | -9.38509 | 27356 ft | 453 kts | 192° |
| 2026-05-08 05:49 | 37.58319 | -9.39078 | 27728 ft | 448 kts | 200° |
| 2026-05-08 05:49 | 37.55305 | -9.40176 | 28076 ft | 445 kts | 204° |
| 2026-05-08 05:50 | 37.52406 | -9.41398 | 28493 ft | 445 kts | 205° |
| 2026-05-08 05:50 | 37.49471 | -9.42665 | 28877 ft | 447 kts | 205° |
| 2026-05-08 05:50 | 37.46516 | -9.43925 | 29206 ft | 449 kts | 205° |
| 2026-05-08 05:50 | 37.43548 | -9.45161 | 29596 ft | 450 kts | 204° |
| 2026-05-08 05:51 | 37.40571 | -9.46372 | 30073 ft | 449 kts | 204° |
| 2026-05-08 05:51 | 37.37608 | -9.47557 | 30550 ft | 445 kts | 204° |
| 2026-05-08 05:51 | 37.34657 | -9.48727 | 30943 ft | 444 kts | 204° |
| 2026-05-08 05:51 | 37.31707 | -9.49893 | 31232 ft | 444 kts | 203° |
| 2026-05-08 05:52 | 37.28762 | -9.51054 | 31614 ft | 443 kts | 203° |
| 2026-05-08 05:52 | 37.25826 | -9.52211 | 31971 ft | 442 kts | 203° |
| 2026-05-08 05:52 | 37.22893 | -9.53367 | 32288 ft | 442 kts | 203° |
| 2026-05-08 05:52 | 37.19963 | -9.54523 | 32595 ft | 441 kts | 203° |
| 2026-05-08 05:53 | 37.17033 | -9.55677 | 32840 ft | 443 kts | 203° |
| 2026-05-08 05:53 | 37.11129 | -9.58003 | 32902 ft | 445 kts | 203° |
| 2026-05-08 05:54 | 37.05266 | -9.60301 | 32904 ft | 437 kts | 203° |
| 2026-05-08 05:54 | 36.99479 | -9.62569 | 32920 ft | 435 kts | 203° |
| 2026-05-08 05:55 | 36.93713 | -9.64830 | 32918 ft | 434 kts | 203° |
| 2026-05-08 05:55 | 36.87942 | -9.67088 | 32902 ft | 435 kts | 203° |
| 2026-05-08 05:56 | 36.82154 | -9.69349 | 32898 ft | 436 kts | 204° |
| 2026-05-08 05:56 | 36.76364 | -9.71605 | 32908 ft | 436 kts | 204° |
| 2026-05-08 05:57 | 36.70578 | -9.73856 | 32912 ft | 435 kts | 204° |
| 2026-05-08 05:57 | 36.64803 | -9.76099 | 32911 ft | 435 kts | 204° |
| 2026-05-08 05:58 | 36.59029 | -9.78339 | 32912 ft | 434 kts | 204° |
| 2026-05-08 05:58 | 36.53272 | -9.80567 | 32907 ft | 432 kts | 204° |
| 2026-05-08 05:59 | 36.47543 | -9.82783 | 32905 ft | 430 kts | 204° |
| 2026-05-08 05:59 | 36.41873 | -9.84972 | 32915 ft | 429 kts | 204° |
| 2026-05-08 06:00 | 36.36139 | -9.87183 | 32910 ft | 428 kts | 204° |
| 2026-05-08 06:00 | 36.30505 | -9.89352 | 32916 ft | 426 kts | 204° |
| 2026-05-08 06:01 | 36.24848 | -9.91526 | 32914 ft | 425 kts | 204° |
| 2026-05-08 06:01 | 36.19200 | -9.93695 | 32914 ft | 425 kts | 204° |
| 2026-05-08 06:02 | 36.13554 | -9.95859 | 32916 ft | 425 kts | 204° |
| 2026-05-08 06:02 | 36.07905 | -9.98021 | 32888 ft | 425 kts | 204° |
| 2026-05-08 06:03 | 36.02256 | -10.00179 | 32898 ft | 425 kts | 204° |
| 2026-05-08 06:03 | 35.96873 | -10.02960 | 32926 ft | 416 kts | 213° |
| 2026-05-08 06:04 | 35.91938 | -10.06661 | 33265 ft | 413 kts | 221° |
| 2026-05-08 06:04 | 35.89653 | -10.08782 | 33644 ft | 410 kts | 221° |
| 2026-05-08 06:04 | 35.87384 | -10.10902 | 33858 ft | 410 kts | 221° |
| 2026-05-08 06:05 | 35.82841 | -10.15148 | 33909 ft | 408 kts | 221° |
| 2026-05-08 06:05 | 35.78323 | -10.19348 | 33915 ft | 406 kts | 221° |
| 2026-05-08 06:06 | 35.73818 | -10.23521 | 33923 ft | 405 kts | 221° |
| 2026-05-08 06:06 | 35.69314 | -10.27684 | 33919 ft | 405 kts | 221° |
| 2026-05-08 06:07 | 35.64805 | -10.31844 | 33917 ft | 405 kts | 221° |
| 2026-05-08 06:07 | 35.60287 | -10.36008 | 33920 ft | 406 kts | 221° |
| 2026-05-08 06:08 | 35.55762 | -10.40171 | 33916 ft | 407 kts | 221° |
| 2026-05-08 06:08 | 35.51222 | -10.44341 | 33913 ft | 408 kts | 221° |
| 2026-05-08 06:09 | 35.46674 | -10.48513 | 33917 ft | 408 kts | 221° |
| 2026-05-08 06:09 | 35.42152 | -10.52655 | 33918 ft | 408 kts | 221° |
| 2026-05-08 06:10 | 35.37597 | -10.56821 | 33919 ft | 408 kts | 221° |
| 2026-05-08 06:10 | 35.33017 | -10.61003 | 33918 ft | 408 kts | 221° |
| 2026-05-08 06:11 | 35.28466 | -10.65155 | 33920 ft | 408 kts | 221° |
| 2026-05-08 06:11 | 35.23925 | -10.69289 | 33908 ft | 406 kts | 221° |
| 2026-05-08 06:12 | 35.19425 | -10.73382 | 33918 ft | 405 kts | 221° |
| 2026-05-08 06:12 | 35.14901 | -10.77491 | 33920 ft | 405 kts | 221° |
| 2026-05-08 06:13 | 35.10381 | -10.81590 | 33917 ft | 404 kts | 221° |
| 2026-05-08 06:13 | 35.05862 | -10.85682 | 33921 ft | 404 kts | 221° |
| 2026-05-08 06:14 | 35.01347 | -10.89765 | 33918 ft | 404 kts | 221° |
| 2026-05-08 06:14 | 34.96831 | -10.93843 | 33909 ft | 404 kts | 221° |
| 2026-05-08 06:15 | 34.92317 | -10.97914 | 33920 ft | 404 kts | 221° |
| 2026-05-08 06:15 | 34.87804 | -11.01979 | 33918 ft | 403 kts | 221° |
| 2026-05-08 06:16 | 34.83290 | -11.06038 | 33924 ft | 403 kts | 221° |
| 2026-05-08 06:16 | 34.78776 | -11.10093 | 33920 ft | 403 kts | 221° |
| 2026-05-08 06:17 | 34.72005 | -11.16163 | 33902 ft | 402 kts | 222° |
| 2026-05-08 06:17 | 34.67507 | -11.20190 | 33915 ft | 402 kts | 222° |
| 2026-05-08 06:18 | 34.63010 | -11.24209 | 33933 ft | 401 kts | 222° |
| 2026-05-08 06:18 | 34.58525 | -11.28228 | 33927 ft | 400 kts | 222° |
| 2026-05-08 06:19 | 34.54048 | -11.32247 | 33930 ft | 400 kts | 222° |
| 2026-05-08 06:19 | 34.49573 | -11.36259 | 33919 ft | 400 kts | 222° |
| 2026-05-08 06:20 | 34.45131 | -11.40236 | 33887 ft | 399 kts | 222° |
| 2026-05-08 06:20 | 34.40671 | -11.44222 | 33915 ft | 398 kts | 222° |
| 2026-05-08 06:21 | 34.36225 | -11.48190 | 33923 ft | 397 kts | 222° |
| 2026-05-08 06:21 | 34.31783 | -11.52150 | 33922 ft | 396 kts | 222° |
| 2026-05-08 06:22 | 34.27345 | -11.56101 | 33929 ft | 396 kts | 222° |
| 2026-05-08 06:22 | 34.22909 | -11.60045 | 33925 ft | 396 kts | 222° |
| 2026-05-08 06:23 | 34.18473 | -11.63984 | 33928 ft | 396 kts | 222° |
| 2026-05-08 06:23 | 34.14045 | -11.67909 | 33921 ft | 394 kts | 223° |
| 2026-05-08 06:24 | 34.09626 | -11.71822 | 33926 ft | 394 kts | 223° |
| 2026-05-08 06:24 | 34.05209 | -11.75728 | 33925 ft | 394 kts | 223° |
| 2026-05-08 06:25 | 34.00791 | -11.79631 | 33926 ft | 394 kts | 223° |
| 2026-05-08 06:25 | 33.96376 | -11.83525 | 33926 ft | 394 kts | 223° |
| 2026-05-08 06:26 | 33.91954 | -11.87420 | 33929 ft | 394 kts | 223° |
| 2026-05-08 06:26 | 33.87532 | -11.91309 | 33921 ft | 393 kts | 223° |
| 2026-05-08 06:27 | 33.83114 | -11.95191 | 33927 ft | 393 kts | 223° |
| 2026-05-08 06:27 | 33.78694 | -11.99069 | 33932 ft | 393 kts | 223° |
| 2026-05-08 06:28 | 33.74271 | -12.02945 | 33929 ft | 394 kts | 223° |
| 2026-05-08 06:28 | 33.69850 | -12.06813 | 33935 ft | 393 kts | 223° |
| 2026-05-08 06:29 | 33.65454 | -12.10655 | 33926 ft | 393 kts | 223° |
| 2026-05-08 06:29 | 33.61033 | -12.14513 | 33887 ft | 393 kts | 223° |
| 2026-05-08 06:30 | 33.56622 | -12.18357 | 33914 ft | 392 kts | 223° |
| 2026-05-08 06:30 | 33.52214 | -12.22195 | 33932 ft | 392 kts | 223° |
| 2026-05-08 06:31 | 33.47801 | -12.26033 | 33930 ft | 392 kts | 223° |
| 2026-05-08 06:31 | 33.43383 | -12.29869 | 33929 ft | 392 kts | 223° |
| 2026-05-08 06:32 | 33.38961 | -12.33704 | 33923 ft | 393 kts | 223° |
| 2026-05-08 06:32 | 33.34539 | -12.37534 | 33929 ft | 393 kts | 223° |
| 2026-05-08 06:33 | 33.30111 | -12.41364 | 33932 ft | 392 kts | 223° |
| 2026-05-08 06:33 | 33.26431 | -12.44543 | 33932 ft | 393 kts | 223° |
| 2026-05-08 06:34 | 33.21998 | -12.48369 | 33929 ft | 393 kts | 223° |
| 2026-05-08 06:34 | 33.17559 | -12.52195 | 33930 ft | 394 kts | 223° |
| 2026-05-08 06:35 | 33.13115 | -12.56020 | 33934 ft | 394 kts | 223° |
| 2026-05-08 06:35 | 33.08675 | -12.59837 | 33934 ft | 394 kts | 223° |
| 2026-05-08 06:36 | 33.04230 | -12.63654 | 33920 ft | 394 kts | 223° |
| 2026-05-08 06:36 | 32.99790 | -12.67461 | 33937 ft | 393 kts | 223° |
| 2026-05-08 06:37 | 32.95347 | -12.71267 | 33935 ft | 394 kts | 223° |
| 2026-05-08 06:37 | 32.90894 | -12.75078 | 33932 ft | 395 kts | 223° |
| 2026-05-08 06:38 | 32.86460 | -12.78867 | 33922 ft | 396 kts | 223° |
| 2026-05-08 06:38 | 32.81985 | -12.82675 | 33934 ft | 395 kts | 223° |
| 2026-05-08 06:39 | 32.77507 | -12.86463 | 33936 ft | 395 kts | 223° |
| 2026-05-08 06:39 | 32.73028 | -12.90248 | 33928 ft | 395 kts | 223° |
| 2026-05-08 06:40 | 32.68556 | -12.94025 | 33930 ft | 394 kts | 223° |
| 2026-05-08 06:40 | 32.64089 | -12.97795 | 33932 ft | 394 kts | 223° |
| 2026-05-08 06:41 | 32.59625 | -13.01558 | 33932 ft | 393 kts | 223° |
| 2026-05-08 06:41 | 32.55163 | -13.05315 | 33939 ft | 393 kts | 223° |
| 2026-05-08 06:42 | 32.50701 | -13.09067 | 33935 ft | 393 kts | 223° |
| 2026-05-08 06:42 | 32.46244 | -13.12811 | 33870 ft | 393 kts | 223° |
| 2026-05-08 06:43 | 32.41779 | -13.16556 | 33930 ft | 394 kts | 223° |
| 2026-05-08 06:43 | 32.37301 | -13.20309 | 33940 ft | 395 kts | 223° |
| 2026-05-08 06:44 | 32.32838 | -13.24043 | 33938 ft | 396 kts | 223° |
| 2026-05-08 06:44 | 32.28335 | -13.27806 | 33937 ft | 397 kts | 223° |
| 2026-05-08 06:45 | 32.23826 | -13.31569 | 33937 ft | 397 kts | 223° |
| 2026-05-08 06:45 | 32.19314 | -13.35329 | 33936 ft | 397 kts | 223° |
| 2026-05-08 06:46 | 32.14810 | -13.39079 | 33921 ft | 396 kts | 223° |
| 2026-05-08 06:46 | 32.10297 | -13.42832 | 33935 ft | 398 kts | 223° |
| 2026-05-08 06:47 | 32.05767 | -13.46596 | 33942 ft | 399 kts | 223° |
| 2026-05-08 06:47 | 32.01218 | -13.50370 | 33947 ft | 400 kts | 223° |
| 2026-05-08 06:48 | 31.96654 | -13.54151 | 33944 ft | 401 kts | 223° |
| 2026-05-08 06:48 | 31.92083 | -13.57932 | 33942 ft | 402 kts | 223° |
| 2026-05-08 06:49 | 31.87515 | -13.61706 | 33890 ft | 401 kts | 223° |
| 2026-05-08 06:49 | 31.82948 | -13.65476 | 33937 ft | 401 kts | 223° |
| 2026-05-08 06:50 | 31.78370 | -13.69251 | 33943 ft | 402 kts | 223° |
| 2026-05-08 06:50 | 31.73778 | -13.73032 | 33949 ft | 403 kts | 223° |
| 2026-05-08 06:51 | 31.69174 | -13.76819 | 33948 ft | 404 kts | 223° |
| 2026-05-08 06:51 | 31.64561 | -13.80607 | 33950 ft | 405 kts | 223° |
| 2026-05-08 06:52 | 31.59979 | -13.84365 | 33953 ft | 405 kts | 223° |
| 2026-05-08 06:52 | 31.55362 | -13.88148 | 33953 ft | 405 kts | 223° |
| 2026-05-08 06:53 | 31.50737 | -13.91934 | 33953 ft | 406 kts | 222° |
| 2026-05-08 06:53 | 31.46095 | -13.95728 | 33954 ft | 407 kts | 222° |
| 2026-05-08 06:54 | 31.41438 | -13.99530 | 33953 ft | 408 kts | 222° |
| 2026-05-08 06:54 | 31.36772 | -14.03335 | 33953 ft | 409 kts | 222° |
| 2026-05-08 06:55 | 31.32101 | -14.07140 | 33953 ft | 409 kts | 222° |
| 2026-05-08 06:55 | 31.27443 | -14.10946 | 33911 ft | 408 kts | 222° |
| 2026-05-08 06:56 | 31.22798 | -14.14767 | 33946 ft | 409 kts | 222° |
| 2026-05-08 06:56 | 31.18143 | -14.18593 | 33956 ft | 410 kts | 222° |
| 2026-05-08 06:57 | 31.13473 | -14.22423 | 33960 ft | 411 kts | 222° |
| 2026-05-08 06:57 | 31.08788 | -14.26260 | 33958 ft | 412 kts | 222° |
| 2026-05-08 06:58 | 31.04093 | -14.30100 | 33963 ft | 412 kts | 222° |
| 2026-05-08 06:58 | 30.99392 | -14.33941 | 33959 ft | 413 kts | 222° |
| 2026-05-08 06:59 | 30.94692 | -14.37774 | 33958 ft | 412 kts | 222° |
| 2026-05-08 06:59 | 30.89712 | -14.41210 | 33968 ft | 421 kts | 214° |
| 2026-05-08 07:00 | 30.84228 | -14.43793 | 33969 ft | 431 kts | 207° |
| 2026-05-08 07:00 | 30.78539 | -14.45873 | 33973 ft | 432 kts | 206° |
| 2026-05-08 07:01 | 30.72799 | -14.47956 | 33967 ft | 432 kts | 206° |
| 2026-05-08 07:01 | 30.67065 | -14.50052 | 33947 ft | 431 kts | 206° |
| 2026-05-08 07:02 | 30.61335 | -14.52154 | 33963 ft | 432 kts | 206° |
| 2026-05-08 07:02 | 30.55601 | -14.54260 | 33975 ft | 433 kts | 206° |
| 2026-05-08 07:03 | 30.49849 | -14.56370 | 33973 ft | 434 kts | 206° |
| 2026-05-08 07:03 | 30.44088 | -14.58480 | 33973 ft | 434 kts | 206° |
| 2026-05-08 07:04 | 30.38319 | -14.60590 | 33957 ft | 435 kts | 206° |
| 2026-05-08 07:04 | 30.32541 | -14.62701 | 33974 ft | 436 kts | 206° |
| 2026-05-08 07:05 | 30.26740 | -14.64818 | 33986 ft | 438 kts | 206° |
| 2026-05-08 07:05 | 30.20917 | -14.66940 | 33985 ft | 439 kts | 206° |
| 2026-05-08 07:06 | 30.15088 | -14.69061 | 33984 ft | 440 kts | 206° |
| 2026-05-08 07:06 | 30.09251 | -14.71182 | 33973 ft | 439 kts | 205° |
| 2026-05-08 07:07 | 30.03419 | -14.73298 | 33978 ft | 439 kts | 205° |
| 2026-05-08 07:07 | 29.97588 | -14.75413 | 33980 ft | 439 kts | 205° |
| 2026-05-08 07:08 | 29.91756 | -14.77525 | 33981 ft | 439 kts | 205° |
| 2026-05-08 07:08 | 29.85963 | -14.79620 | 33989 ft | 439 kts | 205° |
| 2026-05-08 07:09 | 29.80134 | -14.81726 | 33988 ft | 439 kts | 205° |
| 2026-05-08 07:09 | 29.74313 | -14.83826 | 33989 ft | 439 kts | 205° |
| 2026-05-08 07:10 | 29.68488 | -14.85926 | 33991 ft | 438 kts | 205° |
| 2026-05-08 07:10 | 29.62664 | -14.88022 | 33992 ft | 438 kts | 205° |
| 2026-05-08 07:11 | 29.56840 | -14.90116 | 33995 ft | 439 kts | 205° |
| 2026-05-08 07:11 | 29.51018 | -14.92206 | 33987 ft | 438 kts | 205° |
| 2026-05-08 07:12 | 29.45194 | -14.94295 | 33999 ft | 439 kts | 205° |
| 2026-05-08 07:12 | 29.39356 | -14.96388 | 33999 ft | 440 kts | 205° |
| 2026-05-08 07:13 | 29.33507 | -14.98481 | 34001 ft | 441 kts | 205° |
| 2026-05-08 07:13 | 29.27637 | -15.00578 | 34002 ft | 442 kts | 205° |
| 2026-05-08 07:14 | 29.21759 | -15.02675 | 33986 ft | 442 kts | 205° |
| 2026-05-08 07:14 | 29.15881 | -15.04770 | 33993 ft | 443 kts | 205° |
| 2026-05-08 07:15 | 29.09993 | -15.06867 | 34003 ft | 443 kts | 205° |
| 2026-05-08 07:15 | 29.04096 | -15.08965 | 34006 ft | 444 kts | 205° |
| 2026-05-08 07:16 | 28.98198 | -15.11060 | 34006 ft | 444 kts | 205° |
| 2026-05-08 07:16 | 28.92295 | -15.13153 | 34009 ft | 444 kts | 205° |
| 2026-05-08 07:17 | 28.86391 | -15.15245 | 34001 ft | 444 kts | 205° |
| 2026-05-08 07:17 | 28.80486 | -15.17336 | 34008 ft | 444 kts | 205° |
| 2026-05-08 07:18 | 28.74577 | -15.19425 | 34006 ft | 445 kts | 205° |
| 2026-05-08 07:18 | 28.68666 | -15.21512 | 34006 ft | 445 kts | 205° |
| 2026-05-08 07:19 | 28.62797 | -15.23581 | 33998 ft | 444 kts | 205° |
| 2026-05-08 07:19 | 28.56893 | -15.25662 | 33997 ft | 444 kts | 205° |
| 2026-05-08 07:20 | 28.50988 | -15.27739 | 34006 ft | 445 kts | 205° |
| 2026-05-08 07:20 | 28.45073 | -15.29819 | 34001 ft | 445 kts | 205° |
| 2026-05-08 07:21 | 28.39153 | -15.31897 | 34005 ft | 445 kts | 205° |
| 2026-05-08 07:21 | 28.33231 | -15.33973 | 34003 ft | 445 kts | 205° |
| 2026-05-08 07:22 | 28.27319 | -15.36044 | 33999 ft | 445 kts | 205° |
| 2026-05-08 07:22 | 28.21395 | -15.38117 | 34003 ft | 446 kts | 205° |
| 2026-05-08 07:23 | 28.15462 | -15.40191 | 34006 ft | 446 kts | 205° |
| 2026-05-08 07:23 | 28.09579 | -15.42374 | 33990 ft | 441 kts | 210° |
| 2026-05-08 07:24 | 28.04153 | -15.45447 | 33985 ft | 432 kts | 218° |
| 2026-05-08 07:24 | 27.99993 | -15.48533 | 33990 ft | 431 kts | 219° |
| 2026-05-08 07:25 | 27.94976 | -15.52251 | 33993 ft | 431 kts | 219° |
| 2026-05-08 07:26 | 27.87419 | -15.57806 | 34007 ft | 433 kts | 219° |
| 2026-05-08 07:26 | 27.82355 | -15.61519 | 33995 ft | 434 kts | 219° |
| 2026-05-08 07:27 | 27.77300 | -15.65220 | 34000 ft | 433 kts | 219° |
| 2026-05-08 07:27 | 27.72247 | -15.68917 | 34008 ft | 433 kts | 219° |
| 2026-05-08 07:28 | 27.67193 | -15.72614 | 34010 ft | 433 kts | 219° |
| 2026-05-08 07:28 | 27.62136 | -15.76312 | 34009 ft | 433 kts | 219° |
| 2026-05-08 07:29 | 27.57075 | -15.80010 | 34011 ft | 434 kts | 219° |
| 2026-05-08 07:29 | 27.52005 | -15.83710 | 34012 ft | 434 kts | 219° |
| 2026-05-08 07:30 | 27.46930 | -15.87410 | 34007 ft | 435 kts | 219° |
| 2026-05-08 07:30 | 27.41853 | -15.91107 | 34004 ft | 434 kts | 219° |
| 2026-05-08 07:31 | 27.36807 | -15.94777 | 34013 ft | 435 kts | 219° |
| 2026-05-08 07:31 | 27.31690 | -15.98496 | 34022 ft | 436 kts | 219° |
| 2026-05-08 07:32 | 27.26627 | -16.02171 | 34011 ft | 436 kts | 219° |
| 2026-05-08 07:32 | 27.21521 | -16.05873 | 34018 ft | 437 kts | 219° |
| 2026-05-08 07:33 | 27.16405 | -16.09578 | 34016 ft | 438 kts | 219° |
| 2026-05-08 07:33 | 27.11283 | -16.13283 | 33985 ft | 438 kts | 219° |
| 2026-05-08 07:34 | 27.06159 | -16.16986 | 34009 ft | 438 kts | 219° |
| 2026-05-08 07:34 | 27.01035 | -16.20685 | 34018 ft | 439 kts | 219° |
| 2026-05-08 07:35 | 26.95899 | -16.24390 | 34022 ft | 439 kts | 219° |
| 2026-05-08 07:35 | 26.90757 | -16.28094 | 34022 ft | 439 kts | 219° |
| 2026-05-08 07:36 | 26.85609 | -16.31789 | 34021 ft | 439 kts | 219° |
| 2026-05-08 07:36 | 26.80457 | -16.35473 | 34014 ft | 439 kts | 219° |
| 2026-05-08 07:37 | 26.75305 | -16.39154 | 34019 ft | 439 kts | 219° |
| 2026-05-08 07:37 | 26.70155 | -16.42833 | 34022 ft | 439 kts | 219° |
| 2026-05-08 07:38 | 26.65036 | -16.46485 | 34021 ft | 439 kts | 219° |
| 2026-05-08 07:38 | 26.59853 | -16.50180 | 34021 ft | 439 kts | 219° |
| 2026-05-08 07:39 | 26.54730 | -16.53828 | 34021 ft | 439 kts | 219° |
| 2026-05-08 07:39 | 26.49572 | -16.57497 | 34022 ft | 440 kts | 219° |
| 2026-05-08 07:40 | 26.44413 | -16.61162 | 34021 ft | 440 kts | 219° |
| 2026-05-08 07:40 | 26.39246 | -16.64830 | 34023 ft | 440 kts | 219° |
| 2026-05-08 07:41 | 26.34069 | -16.68501 | 34021 ft | 441 kts | 219° |
| 2026-05-08 07:41 | 26.28882 | -16.72175 | 34012 ft | 442 kts | 219° |
| 2026-05-08 07:42 | 26.23683 | -16.75854 | 34024 ft | 443 kts | 219° |
| 2026-05-08 07:42 | 26.18478 | -16.79533 | 34023 ft | 444 kts | 219° |
| 2026-05-08 07:43 | 26.13264 | -16.83227 | 34015 ft | 444 kts | 219° |
| 2026-05-08 07:43 | 26.08044 | -16.86926 | 34024 ft | 445 kts | 219° |
| 2026-05-08 07:44 | 26.02814 | -16.90627 | 34025 ft | 446 kts | 219° |
| 2026-05-08 07:44 | 25.97613 | -16.94304 | 34024 ft | 446 kts | 219° |
| 2026-05-08 07:45 | 25.92373 | -16.98004 | 34025 ft | 446 kts | 219° |
| 2026-05-08 07:45 | 25.87099 | -17.01723 | 34025 ft | 446 kts | 219° |
| 2026-05-08 07:46 | 25.81904 | -17.05383 | 34015 ft | 445 kts | 219° |
| 2026-05-08 07:46 | 25.76671 | -17.09067 | 34026 ft | 446 kts | 219° |
| 2026-05-08 07:47 | 25.71430 | -17.12753 | 34031 ft | 446 kts | 219° |
| 2026-05-08 07:47 | 25.66178 | -17.16442 | 34026 ft | 447 kts | 219° |
| 2026-05-08 07:48 | 25.60919 | -17.20132 | 34027 ft | 448 kts | 219° |
| 2026-05-08 07:48 | 25.55655 | -17.23821 | 34030 ft | 448 kts | 218° |
| 2026-05-08 07:49 | 25.50389 | -17.27508 | 34008 ft | 448 kts | 218° |
| 2026-05-08 07:49 | 25.45128 | -17.31187 | 34022 ft | 448 kts | 218° |
| 2026-05-08 07:50 | 25.39856 | -17.34872 | 34030 ft | 448 kts | 218° |
| 2026-05-08 07:50 | 25.34575 | -17.38558 | 34028 ft | 449 kts | 218° |
| 2026-05-08 07:51 | 25.29287 | -17.42245 | 34027 ft | 450 kts | 218° |
| 2026-05-08 07:51 | 25.23993 | -17.45933 | 34030 ft | 450 kts | 218° |
| 2026-05-08 07:52 | 25.18692 | -17.49621 | 33998 ft | 450 kts | 218° |
| 2026-05-08 07:52 | 25.13387 | -17.53308 | 34028 ft | 451 kts | 218° |
| 2026-05-08 07:53 | 25.08076 | -17.56997 | 34032 ft | 452 kts | 218° |
| 2026-05-08 07:53 | 25.02748 | -17.60694 | 34029 ft | 453 kts | 218° |
| 2026-05-08 07:54 | 24.97445 | -17.64366 | 34029 ft | 453 kts | 218° |
| 2026-05-08 07:54 | 24.92099 | -17.68054 | 34032 ft | 453 kts | 218° |
| 2026-05-08 07:55 | 24.86753 | -17.71739 | 34010 ft | 453 kts | 218° |
| 2026-05-08 07:55 | 24.81409 | -17.75419 | 34018 ft | 453 kts | 218° |
| 2026-05-08 07:56 | 24.76061 | -17.79101 | 34024 ft | 454 kts | 218° |
| 2026-05-08 07:56 | 24.70708 | -17.82783 | 34037 ft | 455 kts | 218° |
| 2026-05-08 07:57 | 24.65337 | -17.86474 | 34035 ft | 456 kts | 218° |
| 2026-05-08 07:57 | 24.59955 | -17.90166 | 34030 ft | 456 kts | 218° |
| 2026-05-08 07:58 | 24.54569 | -17.93858 | 34030 ft | 456 kts | 218° |
| 2026-05-08 07:58 | 24.49181 | -17.97548 | 34020 ft | 456 kts | 218° |
| 2026-05-08 07:59 | 24.43788 | -18.01238 | 34032 ft | 457 kts | 218° |
| 2026-05-08 07:59 | 24.38388 | -18.04929 | 34034 ft | 458 kts | 218° |
| 2026-05-08 08:00 | 24.32981 | -18.08621 | 34038 ft | 458 kts | 218° |
| 2026-05-08 08:00 | 24.27570 | -18.12311 | 34033 ft | 459 kts | 218° |
| 2026-05-08 08:01 | 24.22146 | -18.16007 | 34031 ft | 460 kts | 218° |
| 2026-05-08 08:01 | 24.16710 | -18.19708 | 34036 ft | 460 kts | 218° |
| 2026-05-08 08:02 | 24.11259 | -18.23415 | 34038 ft | 462 kts | 218° |
| 2026-05-08 08:02 | 24.05793 | -18.27128 | 34036 ft | 463 kts | 218° |
| 2026-05-08 08:03 | 24.00359 | -18.30815 | 34041 ft | 463 kts | 218° |
| 2026-05-08 08:03 | 23.94842 | -18.34554 | 34041 ft | 463 kts | 218° |
| 2026-05-08 08:04 | 23.89397 | -18.38241 | 34042 ft | 463 kts | 218° |
| 2026-05-08 08:04 | 23.83919 | -18.41948 | 34034 ft | 463 kts | 217° |
| 2026-05-08 08:05 | 23.78438 | -18.45652 | 34031 ft | 464 kts | 217° |
| 2026-05-08 08:05 | 23.72946 | -18.49361 | 34046 ft | 465 kts | 217° |
| 2026-05-08 08:06 | 23.67437 | -18.53078 | 34045 ft | 466 kts | 217° |
| 2026-05-08 08:06 | 23.61911 | -18.56801 | 34044 ft | 467 kts | 217° |
| 2026-05-08 08:07 | 23.56379 | -18.60524 | 34044 ft | 468 kts | 217° |
| 2026-05-08 08:07 | 23.50836 | -18.64252 | 34043 ft | 468 kts | 217° |
| 2026-05-08 08:08 | 23.45292 | -18.67975 | 34040 ft | 468 kts | 217° |
| 2026-05-08 08:08 | 23.39751 | -18.71694 | 34044 ft | 468 kts | 217° |
| 2026-05-08 08:09 | 23.34213 | -18.75407 | 34046 ft | 467 kts | 217° |
| 2026-05-08 08:09 | 23.28684 | -18.79111 | 34042 ft | 467 kts | 217° |
| 2026-05-08 08:10 | 23.23151 | -18.82813 | 34044 ft | 467 kts | 217° |
| 2026-05-08 08:10 | 23.17619 | -18.86512 | 34036 ft | 467 kts | 217° |
| 2026-05-08 08:11 | 23.12083 | -18.90209 | 34042 ft | 467 kts | 217° |
| 2026-05-08 08:11 | 23.06539 | -18.93908 | 34045 ft | 468 kts | 217° |
| 2026-05-08 08:12 | 23.00984 | -18.97611 | 34047 ft | 469 kts | 217° |
| 2026-05-08 08:12 | 22.95421 | -19.01315 | 34049 ft | 469 kts | 217° |
| 2026-05-08 08:13 | 22.89858 | -19.05015 | 34049 ft | 470 kts | 217° |
| 2026-05-08 08:13 | 22.84324 | -19.08693 | 34044 ft | 470 kts | 217° |
| 2026-05-08 08:14 | 22.78746 | -19.12397 | 34042 ft | 470 kts | 217° |
| 2026-05-08 08:14 | 22.73155 | -19.16106 | 34047 ft | 472 kts | 217° |
| 2026-05-08 08:15 | 22.68495 | -19.19194 | 34054 ft | 473 kts | 217° |
| 2026-05-08 08:15 | 22.62879 | -19.22912 | 34050 ft | 474 kts | 217° |
| 2026-05-08 08:16 | 22.57260 | -19.26629 | 34046 ft | 474 kts | 217° |
| 2026-05-08 08:16 | 22.51632 | -19.30348 | 34038 ft | 474 kts | 216° |
| 2026-05-08 08:17 | 22.46000 | -19.34066 | 34045 ft | 474 kts | 216° |
| 2026-05-08 08:17 | 22.40365 | -19.37782 | 34050 ft | 474 kts | 216° |
| 2026-05-08 08:18 | 22.34728 | -19.41497 | 34050 ft | 475 kts | 216° |
| 2026-05-08 08:18 | 22.29089 | -19.45209 | 34049 ft | 474 kts | 216° |
| 2026-05-08 08:19 | 22.23450 | -19.48918 | 34052 ft | 475 kts | 216° |
| 2026-05-08 08:19 | 22.17815 | -19.52622 | 34042 ft | 475 kts | 216° |
| 2026-05-08 08:20 | 22.12166 | -19.56331 | 34046 ft | 476 kts | 216° |
| 2026-05-08 08:20 | 22.06509 | -19.60041 | 34051 ft | 476 kts | 216° |
| 2026-05-08 08:21 | 22.00841 | -19.63754 | 34049 ft | 477 kts | 216° |
| 2026-05-08 08:21 | 21.95164 | -19.67469 | 34049 ft | 477 kts | 216° |
| 2026-05-08 08:22 | 21.89491 | -19.71180 | 34046 ft | 478 kts | 216° |
| 2026-05-08 08:22 | 21.83849 | -19.74868 | 34045 ft | 478 kts | 215° |
| 2026-05-08 08:23 | 21.78167 | -19.78578 | 34050 ft | 478 kts | 215° |
| 2026-05-08 08:23 | 21.72481 | -19.82288 | 34059 ft | 478 kts | 215° |
| 2026-05-08 08:24 | 21.66788 | -19.85998 | 34060 ft | 479 kts | 215° |
| 2026-05-08 08:24 | 21.61087 | -19.89710 | 34061 ft | 479 kts | 215° |
| 2026-05-08 08:25 | 21.55381 | -19.93422 | 34062 ft | 479 kts | 215° |
| 2026-05-08 08:25 | 21.49679 | -19.97129 | 34057 ft | 480 kts | 215° |
| 2026-05-08 08:26 | 21.43965 | -20.00839 | 34054 ft | 480 kts | 215° |
| 2026-05-08 08:26 | 21.38245 | -20.04549 | 34052 ft | 480 kts | 215° |
| 2026-05-08 08:27 | 21.32523 | -20.08258 | 34050 ft | 481 kts | 215° |
| 2026-05-08 08:27 | 21.26798 | -20.11965 | 34055 ft | 481 kts | 215° |
| 2026-05-08 08:28 | 21.21073 | -20.15669 | 34042 ft | 481 kts | 214° |
| 2026-05-08 08:28 | 21.15345 | -20.19371 | 34045 ft | 481 kts | 214° |
| 2026-05-08 08:29 | 21.09610 | -20.23074 | 34056 ft | 481 kts | 214° |
| 2026-05-08 08:29 | 21.03872 | -20.26776 | 34049 ft | 482 kts | 214° |